createdAt,value
2023-02-02T00:01:24.960Z,7.43
2023-02-02T00:03:52.290Z,3.63
2023-02-02T00:06:23.981Z,4.73
2023-02-02T00:08:51.135Z,4.23
2023-02-02T00:11:18.607Z,4.57
2023-02-02T00:13:45.490Z,4.57
2023-02-02T00:16:27.484Z,4.17
2023-02-02T00:18:55.052Z,4.73
2023-02-02T00:21:21.908Z,7.80
2023-02-02T00:23:49.159Z,5.17
2023-02-02T00:26:16.422Z,4.00
2023-02-02T00:28:43.243Z,6.00
2023-02-02T00:31:10.162Z,3.50
2023-02-02T00:33:36.945Z,4.80
2023-02-02T00:36:04.096Z,4.90
2023-02-02T00:38:31.779Z,7.47
2023-02-02T00:40:58.610Z,6.93
2023-02-02T00:43:25.342Z,6.63
2023-02-02T00:45:52.365Z,8.70
2023-02-02T00:48:19.172Z,7.83
2023-02-02T00:50:46.072Z,6.93
2023-02-02T00:53:12.922Z,7.80
2023-02-02T00:55:40.184Z,6.63
2023-02-02T00:58:08.053Z,10.67
2023-02-02T01:00:34.956Z,13.30
2023-02-02T01:03:04.738Z,7.97
2023-02-02T01:05:32.016Z,9.17
2023-02-02T01:07:59.387Z,12.07
2023-02-02T01:10:26.614Z,9.73
2023-02-02T01:12:54.214Z,8.93
2023-02-02T01:15:21.197Z,7.97
2023-02-02T01:17:49.306Z,9.67
2023-02-02T01:20:18.563Z,6.63
2023-02-02T01:22:45.691Z,8.97
2023-02-02T01:25:12.503Z,12.13
2023-02-02T01:27:39.519Z,10.87
2023-02-02T01:30:06.958Z,11.80
2023-02-02T01:32:33.880Z,10.33
2023-02-02T01:35:00.686Z,12.70
2023-02-02T01:37:27.724Z,8.80
2023-02-02T01:39:54.483Z,12.00
2023-02-02T01:42:22.087Z,10.90
2023-02-02T01:45:14.963Z,12.67
2023-02-02T01:47:43.752Z,7.43
2023-02-02T01:50:12.472Z,14.20
2023-02-02T01:52:41.287Z,8.97
2023-02-02T01:55:10.223Z,13.03
2023-02-02T01:57:40.308Z,13.47
2023-02-02T02:00:10.307Z,14.30
2023-02-02T02:02:45.917Z,13.70
2023-02-02T02:05:15.305Z,9.03
2023-02-02T02:07:44.387Z,9.47
2023-02-02T02:10:11.355Z,14.10
2023-02-02T02:12:38.257Z,18.40
2023-02-02T02:15:24.228Z,14.40
2023-02-02T02:18:10.062Z,18.13
2023-02-02T02:21:22.900Z,10.10
2023-02-02T02:24:08.547Z,17.00
2023-02-02T02:26:38.415Z,15.40
2023-02-02T02:29:17.718Z,18.50
2023-02-02T02:31:57.309Z,12.17
2023-02-02T02:34:42.377Z,12.37
2023-02-02T02:37:11.687Z,14.03
2023-02-02T02:39:59.949Z,18.27
2023-02-02T02:42:29.038Z,13.57
2023-02-02T02:44:59.791Z,16.77
2023-02-02T02:47:29.065Z,13.70
2023-02-02T02:49:56.450Z,12.23
2023-02-02T02:52:23.371Z,10.17
2023-02-02T02:54:52.034Z,16.60
2023-02-02T02:57:19.911Z,11.60
2023-02-02T02:59:46.738Z,10.70
2023-02-02T03:02:17.320Z,11.23
2023-02-02T03:04:53.298Z,12.97
2023-02-02T03:07:29.268Z,11.10
2023-02-02T03:09:57.647Z,15.33
2023-02-02T03:12:24.623Z,13.00
2023-02-02T03:14:51.568Z,13.67
2023-02-02T03:17:18.476Z,10.20
2023-02-02T03:19:45.207Z,12.63
2023-02-02T03:22:12.067Z,12.07
2023-02-02T03:24:38.831Z,9.37
2023-02-02T03:27:06.057Z,12.57
2023-02-02T03:29:32.979Z,13.50
2023-02-02T03:31:59.727Z,10.13
2023-02-02T03:34:26.537Z,11.23
2023-02-02T03:36:53.373Z,8.67
2023-02-02T03:39:20.166Z,11.90
2023-02-02T03:41:46.960Z,9.53
2023-02-02T03:44:13.917Z,13.07
2023-02-02T03:46:41.305Z,13.67
2023-02-02T03:49:08.177Z,9.70
2023-02-02T03:51:34.938Z,11.90
2023-02-02T03:54:01.751Z,18.73
2023-02-02T03:56:28.584Z,12.23
2023-02-02T03:58:55.347Z,10.13
2023-02-02T04:01:27.087Z,16.77
2023-02-02T04:03:54.533Z,11.77
2023-02-02T04:06:21.534Z,11.63
2023-02-02T04:08:48.310Z,13.37
2023-02-02T04:11:15.375Z,14.37
2023-02-02T04:13:43.615Z,12.03
2023-02-02T04:16:11.146Z,11.03
2023-02-02T04:18:40.568Z,14.40
2023-02-02T04:21:07.962Z,10.67
2023-02-02T04:23:34.751Z,10.77
2023-02-02T04:26:01.781Z,11.43
2023-02-02T04:28:28.743Z,13.23
2023-02-02T04:30:56.065Z,10.50
2023-02-02T04:33:23.420Z,9.47
2023-02-02T04:35:50.171Z,7.43
2023-02-02T04:38:17.002Z,9.80
2023-02-02T04:40:45.157Z,13.10
2023-02-02T04:43:12.345Z,10.57
2023-02-02T04:45:39.534Z,15.17
2023-02-02T04:48:06.444Z,11.07
2023-02-02T04:50:33.320Z,12.30
2023-02-02T04:53:00.108Z,9.73
2023-02-02T04:55:27.149Z,8.23
2023-02-02T04:57:54.038Z,11.73
2023-02-02T05:00:20.903Z,8.87
2023-02-02T05:02:47.905Z,9.27
2023-02-02T05:05:14.913Z,15.33
2023-02-02T05:07:41.755Z,11.07
2023-02-02T05:10:09.913Z,11.33
2023-02-02T05:12:36.785Z,13.43
2023-02-02T05:15:05.607Z,9.57
2023-02-02T05:17:32.999Z,13.57
2023-02-02T05:19:59.730Z,14.10
2023-02-02T05:22:27.118Z,16.27
2023-02-02T05:24:53.961Z,9.60
2023-02-02T05:27:21.120Z,13.00
2023-02-02T05:29:48.821Z,10.47
2023-02-02T05:32:15.564Z,9.50
2023-02-02T05:34:42.536Z,12.80
2023-02-02T05:37:09.328Z,19.43
2023-02-02T05:39:36.202Z,12.97
2023-02-02T05:42:02.929Z,13.97
2023-02-02T05:44:29.743Z,11.93
2023-02-02T05:46:56.584Z,7.67
2023-02-02T05:49:23.416Z,13.57
2023-02-02T05:51:54.969Z,9.93
2023-02-02T05:54:21.921Z,9.17
2023-02-02T05:56:49.428Z,10.97
2023-02-02T05:59:17.575Z,9.83
2023-02-02T06:01:47.717Z,12.93
2023-02-02T06:04:15.166Z,10.97
2023-02-02T06:06:42.450Z,5.70
2023-02-02T06:09:09.298Z,11.30
2023-02-02T06:11:36.210Z,12.43
2023-02-02T06:14:03.019Z,7.03
2023-02-02T06:16:29.871Z,9.23
2023-02-02T06:18:56.750Z,15.17
2023-02-02T06:21:24.893Z,8.27
2023-02-02T06:23:52.016Z,13.30
2023-02-02T06:26:19.493Z,13.53
2023-02-02T06:28:50.851Z,8.50
2023-02-02T06:31:19.633Z,11.53
2023-02-02T06:33:47.368Z,7.73
2023-02-02T06:36:14.421Z,8.87
2023-02-02T06:38:41.277Z,6.73
2023-02-02T06:41:08.002Z,10.50
2023-02-02T06:43:34.890Z,11.60
2023-02-02T06:46:01.782Z,9.07
2023-02-02T06:48:28.694Z,6.93
2023-02-02T06:50:57.989Z,10.97
2023-02-02T06:53:24.919Z,11.73
2023-02-02T06:55:59.207Z,12.37
2023-02-02T06:58:26.290Z,12.17
2023-02-02T07:00:53.328Z,11.27
2023-02-02T07:03:21.616Z,12.70
2023-02-02T07:05:49.075Z,17.70
2023-02-02T07:08:16.241Z,13.23
2023-02-02T07:11:13.278Z,10.23
2023-02-02T07:13:31.371Z,10.17
2023-02-02T07:15:58.501Z,9.93
2023-02-02T07:18:25.432Z,10.77
2023-02-02T07:20:52.306Z,9.93
2023-02-02T07:23:19.077Z,13.47
2023-02-02T07:25:45.857Z,10.83
2023-02-02T07:28:12.738Z,7.13
2023-02-02T07:30:40.039Z,9.47
2023-02-02T07:33:06.820Z,11.63
2023-02-02T07:35:33.623Z,10.13
2023-02-02T07:38:00.466Z,12.10
2023-02-02T07:40:27.311Z,16.93
2023-02-02T07:42:54.219Z,11.83
2023-02-02T07:45:24.717Z,9.63
2023-02-02T07:48:03.220Z,9.13
2023-02-02T07:50:31.118Z,10.63
2023-02-02T07:52:59.039Z,10.10
2023-02-02T07:55:25.922Z,9.27
2023-02-02T07:57:55.628Z,14.03
2023-02-02T08:00:22.838Z,7.90
2023-02-02T08:02:49.898Z,8.90
2023-02-02T08:05:17.479Z,8.80
2023-02-02T08:07:45.020Z,8.13
2023-02-02T08:10:11.938Z,12.27
2023-02-02T08:12:38.773Z,10.33
2023-02-02T08:15:05.743Z,10.63
2023-02-02T08:17:32.593Z,9.03
2023-02-02T08:19:59.476Z,10.20
2023-02-02T08:22:26.228Z,10.10
2023-02-02T08:24:52.988Z,11.70
2023-02-02T08:27:19.891Z,9.37
2023-02-02T08:29:46.779Z,9.00
2023-02-02T08:32:13.633Z,7.67
2023-02-02T08:34:41.124Z,7.43
2023-02-02T08:37:07.990Z,10.00
2023-02-02T08:39:34.863Z,9.97
2023-02-02T08:42:01.716Z,6.80
2023-02-02T08:44:44.177Z,5.93
2023-02-02T08:47:15.472Z,15.43
2023-02-02T08:49:42.635Z,18.53
2023-02-02T08:52:09.582Z,10.90
2023-02-02T08:54:36.525Z,13.47
2023-02-02T08:57:03.401Z,16.73
2023-02-02T08:59:30.158Z,15.97
2023-02-02T09:01:57.145Z,12.63
2023-02-02T09:04:24.006Z,10.37
2023-02-02T09:06:50.758Z,8.30
2023-02-02T09:09:17.743Z,6.90
2023-02-02T09:11:44.919Z,6.17
2023-02-02T09:14:13.135Z,6.77
2023-02-02T09:16:40.354Z,11.73
2023-02-02T09:19:07.608Z,8.03
2023-02-02T09:21:37.244Z,6.90
2023-02-02T09:24:11.783Z,8.83
2023-02-02T09:26:40.474Z,11.90
2023-02-02T09:29:08.567Z,15.17
2023-02-02T09:31:36.643Z,7.93
2023-02-02T09:34:04.517Z,9.20
2023-02-02T09:36:32.002Z,8.13
2023-02-02T09:38:58.917Z,7.83
2023-02-02T09:41:38.085Z,10.07
2023-02-02T09:44:23.903Z,9.80
2023-02-02T09:46:50.767Z,6.77
2023-02-02T09:49:23.809Z,7.07
2023-02-02T09:51:56.987Z,33.57
2023-02-02T09:54:44.176Z,6.77
2023-02-02T09:57:15.292Z,14.23
2023-02-02T09:59:43.127Z,5.50
2023-02-02T10:02:18.979Z,8.80
2023-02-02T10:04:49.207Z,6.80
2023-02-02T10:07:18.946Z,29.73
2023-02-02T10:10:11.035Z,25.90
2023-02-02T10:12:51.939Z,7.80
2023-02-02T10:15:18.881Z,11.83
2023-02-02T10:17:49.120Z,15.07
2023-02-02T10:20:27.677Z,9.87
2023-02-02T10:22:58.027Z,14.53
2023-02-02T10:25:27.960Z,12.07
2023-02-02T10:28:06.900Z,5.57
2023-02-02T10:30:54.275Z,15.60
2023-02-02T10:33:29.610Z,16.47
2023-02-02T10:36:12.593Z,8.63
2023-02-02T10:38:48.420Z,12.97
2023-02-02T10:41:44.562Z,13.70
2023-02-02T10:44:14.821Z,16.83
2023-02-02T10:46:49.186Z,13.43
2023-02-02T10:49:16.719Z,7.13
2023-02-02T10:51:47.059Z,12.80
2023-02-02T10:54:26.530Z,10.03
2023-02-02T10:56:55.572Z,11.10
2023-02-02T10:59:25.116Z,7.67
2023-02-02T11:01:52.177Z,5.57
2023-02-02T11:04:44.039Z,9.30
2023-02-02T11:07:20.112Z,6.73
2023-02-02T11:09:46.973Z,3.57
2023-02-02T11:12:19.460Z,5.77
2023-02-02T11:14:49.887Z,6.07
2023-02-02T11:17:19.547Z,3.30
2023-02-02T11:19:46.490Z,17.47
2023-02-02T11:22:31.140Z,9.27
2023-02-02T11:25:00.053Z,4.47
2023-02-02T11:27:28.304Z,6.07
2023-02-02T11:29:56.258Z,8.57
2023-02-02T11:32:30.897Z,5.67
2023-02-02T11:35:07.222Z,3.80
2023-02-02T11:37:33.993Z,8.20
2023-02-02T11:40:19.498Z,9.03
2023-02-02T11:42:50.882Z,7.07
2023-02-02T11:45:20.251Z,6.57
2023-02-02T11:47:47.141Z,6.87
2023-02-02T11:50:25.311Z,6.97
2023-02-02T11:52:52.555Z,8.47
2023-02-02T11:55:26.361Z,3.50
2023-02-02T11:58:12.209Z,6.73
2023-02-02T12:00:52.523Z,5.60
2023-02-02T12:03:28.289Z,5.70
2023-02-02T12:05:55.365Z,4.97
2023-02-02T12:08:22.448Z,7.17
2023-02-02T12:10:52.116Z,6.60
2023-02-02T12:13:37.541Z,4.43
2023-02-02T12:16:42.723Z,9.30
2023-02-02T12:19:29.732Z,9.30
2023-02-02T12:22:02.341Z,7.13
2023-02-02T12:24:31.617Z,6.27
2023-02-02T12:27:10.923Z,5.40
2023-02-02T12:29:37.678Z,3.90
2023-02-02T12:32:14.824Z,3.00
2023-02-02T12:34:41.630Z,5.57
2023-02-02T12:37:11.492Z,2.73
2023-02-02T12:39:49.385Z,4.50
2023-02-02T12:42:34.755Z,3.33
2023-02-02T12:45:20.696Z,5.10
2023-02-02T12:47:48.177Z,4.07
2023-02-02T12:50:27.540Z,5.47
2023-02-02T12:53:13.367Z,4.93
2023-02-02T12:56:03.480Z,6.87
2023-02-02T12:58:53.498Z,6.40
2023-02-02T13:01:33.453Z,13.87
2023-02-02T13:04:00.342Z,7.57
2023-02-02T13:06:29.838Z,8.83
2023-02-02T13:09:05.950Z,5.60
2023-02-02T13:11:46.079Z,13.63
2023-02-02T13:14:27.910Z,12.70
2023-02-02T13:16:58.035Z,10.73
2023-02-02T13:19:45.184Z,10.80
2023-02-02T13:22:22.315Z,4.97
2023-02-02T13:24:49.860Z,6.80
2023-02-02T13:27:19.408Z,6.37
2023-02-02T13:29:52.280Z,10.40
2023-02-02T13:32:25.269Z,7.23
2023-02-02T13:35:00.947Z,5.53
2023-02-02T13:37:32.322Z,10.97
2023-02-02T13:40:05.491Z,7.60
2023-02-02T13:42:47.780Z,9.50
2023-02-02T13:45:20.803Z,8.67
2023-02-02T13:47:51.971Z,7.87
2023-02-02T13:50:21.066Z,7.53
2023-02-02T13:53:06.422Z,5.40
2023-02-02T13:56:12.426Z,8.80
2023-02-02T13:58:39.206Z,11.37
2023-02-02T14:01:09.223Z,7.80
2023-02-02T14:03:40.821Z,8.10
2023-02-02T14:06:10.585Z,6.43
2023-02-02T14:08:37.793Z,7.30
2023-02-02T14:11:08.119Z,8.17
2023-02-02T14:14:04.160Z,7.77
2023-02-02T14:16:30.959Z,8.03
2023-02-02T14:18:59.148Z,7.47
2023-02-02T14:21:32.420Z,11.00
2023-02-02T14:24:00.543Z,9.53
2023-02-02T14:26:41.424Z,8.63
2023-02-02T14:29:29.548Z,14.13
2023-02-02T14:31:57.478Z,31.27
2023-02-02T14:34:40.304Z,8.97
2023-02-02T14:37:16.949Z,10.73
2023-02-02T14:40:07.185Z,18.20
2023-02-02T14:42:55.997Z,12.07
2023-02-02T14:45:26.170Z,12.90
2023-02-02T14:47:55.252Z,10.70
2023-02-02T14:50:24.015Z,13.00
2023-02-02T14:53:00.807Z,15.27
2023-02-02T14:55:28.542Z,10.90
2023-02-02T14:57:56.966Z,11.03
2023-02-02T15:00:25.097Z,25.53
2023-02-02T15:02:55.158Z,8.60
2023-02-02T15:05:34.325Z,7.70
2023-02-02T15:08:08.976Z,9.13
2023-02-02T15:10:48.285Z,16.37
2023-02-02T15:13:17.092Z,7.97
2023-02-02T15:15:44.283Z,9.20
2023-02-02T15:18:19.651Z,17.63
2023-02-02T15:20:49.573Z,13.30
2023-02-02T15:23:28.185Z,7.90
2023-02-02T15:26:01.075Z,7.07
2023-02-02T15:28:46.694Z,8.10
2023-02-02T15:31:20.728Z,10.77
2023-02-02T15:33:49.738Z,7.23
2023-02-02T15:36:27.314Z,13.63
2023-02-02T15:38:56.660Z,11.43
2023-02-02T15:41:28.688Z,6.53
2023-02-02T15:43:55.865Z,7.63
2023-02-02T15:46:35.339Z,18.33
2023-02-02T15:49:31.470Z,13.70
2023-02-02T15:52:01.505Z,11.03
2023-02-02T15:54:35.532Z,5.40
2023-02-02T15:57:02.939Z,6.33
2023-02-02T15:59:37.878Z,11.03
2023-02-02T16:02:07.527Z,8.33
2023-02-02T16:04:35.875Z,11.13
2023-02-02T16:07:03.871Z,13.43
2023-02-02T16:09:34.210Z,5.90
2023-02-02T16:12:02.053Z,23.53
2023-02-02T16:14:29.146Z,12.27
2023-02-02T16:16:55.951Z,6.67
2023-02-02T16:19:23.949Z,12.20
2023-02-02T16:21:59.493Z,7.67
2023-02-02T16:24:28.870Z,4.63
2023-02-02T16:26:58.098Z,5.33
2023-02-02T16:29:25.535Z,6.90
2023-02-02T16:31:52.486Z,9.03
2023-02-02T16:34:39.164Z,8.93
2023-02-02T16:37:07.136Z,4.93
2023-02-02T16:39:33.888Z,4.17
2023-02-02T16:42:19.793Z,6.60
2023-02-02T16:44:48.841Z,7.67
2023-02-02T16:47:27.928Z,7.57
2023-02-02T16:50:05.948Z,9.10
2023-02-02T16:52:32.966Z,11.20
2023-02-02T16:55:00.110Z,10.70
2023-02-02T16:57:34.028Z,12.53
2023-02-02T17:00:02.607Z,10.07
2023-02-02T17:02:57.581Z,11.20
2023-02-02T17:05:33.646Z,29.77
2023-02-02T17:08:04.679Z,8.50
2023-02-02T17:10:33.836Z,38.13
2023-02-02T17:13:01.670Z,8.37
2023-02-02T17:15:34.822Z,7.67
2023-02-02T17:18:02.902Z,13.90
2023-02-02T17:20:30.156Z,32.90
2023-02-02T17:23:05.481Z,14.50
2023-02-02T17:25:41.430Z,27.00
2023-02-02T17:28:11.338Z,36.30
2023-02-02T17:30:40.157Z,40.83
2023-02-02T17:33:10.768Z,60.50
2023-02-02T17:35:53.119Z,54.70
2023-02-02T17:38:21.834Z,63.73
2023-02-02T17:40:49.729Z,59.30
2023-02-02T17:43:16.509Z,114.70
2023-02-02T17:45:43.459Z,193.00
2023-02-02T17:48:11.630Z,54.17
2023-02-02T17:50:39.082Z,37.23
2023-02-02T17:53:05.971Z,40.43
2023-02-02T17:55:36.295Z,25.53
2023-02-02T17:58:03.165Z,16.00
2023-02-02T18:00:31.427Z,50.77
2023-02-02T18:03:07.796Z,41.00
2023-02-02T18:05:34.731Z,115.77
2023-02-02T18:08:01.846Z,93.03
2023-02-02T18:10:30.426Z,89.40
2023-02-02T18:12:57.488Z,39.10
2023-02-02T18:15:24.662Z,26.17
2023-02-02T18:17:51.731Z,137.67
2023-02-02T18:20:19.437Z,12.80
2023-02-02T18:22:48.722Z,30.90
2023-02-02T18:25:15.688Z,12.60
2023-02-02T18:27:42.435Z,32.37
2023-02-02T18:30:09.676Z,24.33
2023-02-02T18:32:39.999Z,50.40
2023-02-02T18:35:07.800Z,70.17
2023-02-02T18:37:35.299Z,16.17
2023-02-02T18:40:02.119Z,13.20
2023-02-02T18:42:32.261Z,14.83
2023-02-02T18:45:03.101Z,24.97
2023-02-02T18:47:29.909Z,18.60
2023-02-02T18:49:56.717Z,13.50
2023-02-02T18:52:23.551Z,19.43
2023-02-02T18:54:50.490Z,10.13
2023-02-02T18:57:17.276Z,12.90
2023-02-02T18:59:44.168Z,10.90
2023-02-02T19:02:13.386Z,11.33
2023-02-02T19:04:40.267Z,14.87
2023-02-02T19:07:25.565Z,7.97
2023-02-02T19:09:53.086Z,9.37
2023-02-02T19:12:19.848Z,9.77
2023-02-02T19:14:46.635Z,11.20
2023-02-02T19:17:24.669Z,10.93
2023-02-02T19:19:51.722Z,8.97
2023-02-02T19:22:19.926Z,25.07
2023-02-02T19:24:46.991Z,9.47
2023-02-02T19:27:19.136Z,9.43
2023-02-02T19:29:46.681Z,10.33
2023-02-02T19:32:24.569Z,22.07
2023-02-02T19:34:58.772Z,10.83
2023-02-02T19:37:26.834Z,11.63
2023-02-02T19:40:02.469Z,11.47
2023-02-02T19:42:29.305Z,8.80
2023-02-02T19:44:56.719Z,9.23
2023-02-02T19:47:32.681Z,8.13
2023-02-02T19:50:12.246Z,7.33
2023-02-02T19:52:39.347Z,9.57
2023-02-02T19:55:17.538Z,8.57
2023-02-02T19:57:44.525Z,8.00
2023-02-02T20:00:28.263Z,7.90
2023-02-02T20:03:13.247Z,7.63
2023-02-02T20:05:41.695Z,7.77
2023-02-02T20:08:20.707Z,7.63
2023-02-02T20:10:47.699Z,9.17
2023-02-02T20:13:37.879Z,7.93
2023-02-02T20:16:04.919Z,6.63
2023-02-02T20:18:44.511Z,14.90
2023-02-02T20:21:34.467Z,9.27
2023-02-02T20:24:01.321Z,7.87
2023-02-02T20:26:35.851Z,8.27
2023-02-02T20:29:14.667Z,8.33
2023-02-02T20:31:41.487Z,8.80
2023-02-02T20:34:23.523Z,6.40
2023-02-02T20:36:50.875Z,8.87
2023-02-02T20:39:23.834Z,6.30
2023-02-02T20:41:50.977Z,18.27
2023-02-02T20:44:17.890Z,18.90
2023-02-02T20:46:44.708Z,14.97
2023-02-02T20:49:11.777Z,11.37
2023-02-02T20:51:40.808Z,10.43
2023-02-02T20:54:08.563Z,12.83
2023-02-02T20:56:35.619Z,12.87
2023-02-02T20:59:02.586Z,9.80
2023-02-02T21:01:30.476Z,10.93
2023-02-02T21:03:57.574Z,10.93
2023-02-02T21:06:24.465Z,8.43
2023-02-02T21:08:52.651Z,10.50
2023-02-02T21:11:19.724Z,11.63
2023-02-02T21:13:46.661Z,9.73
2023-02-02T21:16:14.980Z,9.07
2023-02-02T21:18:42.026Z,13.00
2023-02-02T21:21:08.793Z,11.13
2023-02-02T21:23:36.042Z,10.03
2023-02-02T21:26:02.966Z,11.23
2023-02-02T21:28:30.135Z,16.07
2023-02-02T21:30:57.273Z,8.87
2023-02-02T21:33:25.023Z,9.57
2023-02-02T21:35:52.711Z,16.07
2023-02-02T21:38:20.084Z,12.93
2023-02-02T21:40:48.570Z,19.17
2023-02-02T21:43:17.714Z,9.97
2023-02-02T21:45:45.847Z,11.17
2023-02-02T21:48:33.185Z,9.30
2023-02-02T21:51:17.194Z,7.50
2023-02-02T21:53:44.897Z,9.03
2023-02-02T21:56:22.252Z,10.37
2023-02-02T21:58:49.806Z,12.13
2023-02-02T22:01:16.688Z,8.83
2023-02-02T22:03:50.468Z,8.40
2023-02-02T22:06:29.703Z,9.83
2023-02-02T22:09:01.638Z,12.53
2023-02-02T22:11:33.751Z,10.87
2023-02-02T22:14:21.842Z,11.73
2023-02-02T22:16:51.597Z,7.40
2023-02-02T22:19:48.144Z,8.07
2023-02-02T22:22:16.386Z,9.63
2023-02-02T22:24:44.932Z,8.77
2023-02-02T22:27:23.378Z,9.60
2023-02-02T22:29:53.499Z,12.00
2023-02-02T22:32:20.795Z,13.93
2023-02-02T22:34:48.898Z,8.20
2023-02-02T22:37:16.431Z,9.07
2023-02-02T22:39:43.830Z,10.13
2023-02-02T22:42:11.626Z,8.63
2023-02-02T22:44:38.922Z,9.60
2023-02-02T22:47:06.663Z,7.83
2023-02-02T22:49:33.839Z,9.13
2023-02-02T22:52:00.590Z,12.57
2023-02-02T22:54:28.399Z,8.73
2023-02-02T22:56:55.984Z,7.00
2023-02-02T22:59:23.805Z,8.57
2023-02-02T23:01:51.521Z,9.13
2023-02-02T23:04:19.288Z,9.07
2023-02-02T23:06:46.150Z,8.10
2023-02-02T23:09:12.895Z,8.17
2023-02-02T23:11:40.539Z,10.17
2023-02-02T23:14:07.890Z,12.67
2023-02-02T23:16:35.566Z,7.83
2023-02-02T23:19:03.307Z,10.90
2023-02-02T23:21:31.552Z,8.80
2023-02-02T23:23:58.293Z,9.20
2023-02-02T23:26:25.542Z,6.07
2023-02-02T23:28:53.220Z,8.00
2023-02-02T23:31:21.112Z,6.23
2023-02-02T23:33:48.343Z,5.10
2023-02-02T23:36:15.302Z,9.33
2023-02-02T23:38:42.131Z,4.83
2023-02-02T23:41:09.067Z,6.90
2023-02-02T23:43:35.842Z,7.87
2023-02-02T23:46:02.763Z,8.23
2023-02-02T23:48:29.598Z,8.27
2023-02-02T23:50:56.578Z,6.57
2023-02-02T23:53:23.818Z,5.67
2023-02-02T23:55:50.662Z,7.77
2023-02-02T23:58:17.484Z,7.43
